createdAt,value
2023-03-03T00:03:06.120Z,4.34
2023-03-03T00:08:07.784Z,4.47
2023-03-03T00:13:24.321Z,4.48
2023-03-03T00:18:34.901Z,4.42
2023-03-03T00:23:38.759Z,4.41
2023-03-03T00:28:47.285Z,4.47
2023-03-03T00:33:54.960Z,4.49
2023-03-03T00:39:11.420Z,4.52
2023-03-03T00:44:45.417Z,4.51
2023-03-03T00:49:47.047Z,4.49
2023-03-03T00:54:48.863Z,4.47
2023-03-03T00:59:50.705Z,4.48
2023-03-03T01:04:56.442Z,4.49
2023-03-03T01:09:59.247Z,4.45
2023-03-03T01:15:02.246Z,4.44
2023-03-03T01:20:04.616Z,4.50
2023-03-03T01:25:06.839Z,4.53
2023-03-03T01:30:09.431Z,4.50
2023-03-03T01:35:11.760Z,4.50
2023-03-03T01:40:19.467Z,4.40
2023-03-03T01:45:28.099Z,4.44
2023-03-03T01:50:45.365Z,4.48
2023-03-03T01:55:50.278Z,4.49
2023-03-03T02:00:57.810Z,4.48
2023-03-03T02:06:06.324Z,4.46
2023-03-03T02:11:09.023Z,4.49
2023-03-03T02:16:10.672Z,4.45
2023-03-03T02:21:18.035Z,4.45
2023-03-03T02:26:41.400Z,4.48
2023-03-03T02:31:45.093Z,4.44
2023-03-03T02:36:46.983Z,4.39
2023-03-03T02:42:21.752Z,4.42
2023-03-03T02:47:29.536Z,4.36
2023-03-03T02:52:31.311Z,4.33
2023-03-03T02:57:32.917Z,4.26
2023-03-03T03:02:34.741Z,4.08
2023-03-03T03:07:37.746Z,4.15
2023-03-03T03:12:40.265Z,4.15
2023-03-03T03:17:44.195Z,4.17
2023-03-03T03:22:47.078Z,4.11
2023-03-03T03:27:48.881Z,4.15
2023-03-03T03:32:50.776Z,4.17
2023-03-03T03:37:52.731Z,4.05
2023-03-03T03:42:55.112Z,4.06
2023-03-03T03:47:58.032Z,4.06
2023-03-03T03:52:59.709Z,4.05
2023-03-03T03:58:02.287Z,4.02
2023-03-03T04:03:04.170Z,3.86
2023-03-03T04:08:06.444Z,3.89
2023-03-03T04:13:08.765Z,3.77
2023-03-03T04:18:11.212Z,3.75
2023-03-03T04:23:14.858Z,3.80
2023-03-03T04:28:17.659Z,3.75
2023-03-03T04:33:19.957Z,3.72
2023-03-03T04:38:22.016Z,3.68
2023-03-03T04:43:24.900Z,3.60
2023-03-03T04:48:27.279Z,3.63
2023-03-03T04:53:29.473Z,3.59
2023-03-03T04:58:31.357Z,3.56
2023-03-03T05:03:33.257Z,3.49
2023-03-03T05:08:35.292Z,3.54
2023-03-03T05:13:36.855Z,3.58
2023-03-03T05:18:38.611Z,3.61
2023-03-03T05:23:40.654Z,3.63
2023-03-03T05:28:42.255Z,3.65
2023-03-03T05:33:43.951Z,3.69
2023-03-03T05:38:45.554Z,3.71
2023-03-03T05:43:47.297Z,3.71
2023-03-03T05:48:48.932Z,3.64
2023-03-03T05:53:50.575Z,3.65
2023-03-03T05:58:52.280Z,3.64
2023-03-03T06:03:53.926Z,3.67
2023-03-03T06:08:57.273Z,3.68
2023-03-03T06:13:59.133Z,3.60
2023-03-03T06:19:01.404Z,3.60
2023-03-03T06:24:03.112Z,3.55
2023-03-03T06:29:04.766Z,3.56
2023-03-03T06:34:06.381Z,3.57
2023-03-03T06:39:08.054Z,3.51
2023-03-03T06:44:11.909Z,3.43
2023-03-03T06:49:13.530Z,3.44
2023-03-03T06:54:16.649Z,3.48
2023-03-03T06:59:20.813Z,3.51
2023-03-03T07:04:31.065Z,3.50
2023-03-03T07:09:32.769Z,3.53
2023-03-03T07:14:39.558Z,3.59
2023-03-03T07:19:42.430Z,3.60
2023-03-03T07:24:52.832Z,3.46
2023-03-03T07:30:16.348Z,3.47
2023-03-03T07:35:40.276Z,3.35
2023-03-03T07:40:49.568Z,3.70
2023-03-03T07:45:51.649Z,3.70
2023-03-03T07:50:53.351Z,3.89
2023-03-03T07:55:55.204Z,4.12
2023-03-03T08:01:18.550Z,4.27
2023-03-03T08:06:44.493Z,4.52
2023-03-03T08:11:57.790Z,4.64
2023-03-03T08:17:01.665Z,4.82
2023-03-03T08:22:16.509Z,5.10
2023-03-03T08:27:18.084Z,5.56
2023-03-03T08:32:19.855Z,5.81
2023-03-03T08:37:21.529Z,6.11
2023-03-03T08:42:23.096Z,6.15
2023-03-03T08:47:26.000Z,6.36
2023-03-03T08:52:48.244Z,6.88
2023-03-03T08:57:50.022Z,7.39
2023-03-03T09:02:51.761Z,7.79
2023-03-03T09:07:54.461Z,7.81
2023-03-03T09:12:58.989Z,7.44
2023-03-03T09:18:14.051Z,7.82
2023-03-03T09:23:38.180Z,7.70
2023-03-03T09:28:39.858Z,8.34
2023-03-03T09:33:45.026Z,8.18
2023-03-03T09:38:47.864Z,8.40
2023-03-03T09:44:08.238Z,8.34
2023-03-03T09:49:27.783Z,8.93
2023-03-03T09:54:54.154Z,9.00
2023-03-03T10:00:10.871Z,8.44
2023-03-03T10:05:25.362Z,8.35
2023-03-03T10:10:51.387Z,8.29
2023-03-03T10:15:59.172Z,7.90
2023-03-03T10:21:41.070Z,7.91
2023-03-03T10:27:12.072Z,7.89
2023-03-03T10:32:45.931Z,7.47
2023-03-03T10:38:25.127Z,7.61
2023-03-03T10:44:00.950Z,7.49
2023-03-03T10:49:27.545Z,7.84
2023-03-03T10:54:57.591Z,8.47
2023-03-03T11:00:15.847Z,8.43
2023-03-03T11:05:43.695Z,8.67
2023-03-03T11:10:50.047Z,9.45
2023-03-03T11:16:23.033Z,9.65
2023-03-03T11:21:37.715Z,9.07
2023-03-03T11:26:48.072Z,8.71
2023-03-03T11:31:57.569Z,8.50
2023-03-03T11:37:08.559Z,8.71
2023-03-03T11:42:32.293Z,8.87
2023-03-03T11:47:42.571Z,8.45
2023-03-03T11:52:53.307Z,8.39
2023-03-03T11:58:13.343Z,8.99
2023-03-03T12:03:30.350Z,9.39
2023-03-03T12:08:42.766Z,8.98
2023-03-03T12:14:22.378Z,8.68
2023-03-03T12:19:54.408Z,8.71
2023-03-03T12:24:55.989Z,8.86
2023-03-03T12:30:07.303Z,8.79
2023-03-03T12:35:27.626Z,8.95
2023-03-03T12:40:32.377Z,9.13
2023-03-03T12:45:49.537Z,8.93
2023-03-03T12:51:16.434Z,8.87
2023-03-03T12:56:33.457Z,8.90
2023-03-03T13:01:52.589Z,8.66
2023-03-03T13:07:10.182Z,8.63
2023-03-03T13:12:51.731Z,8.46
2023-03-03T13:18:05.173Z,8.53
2023-03-03T13:23:38.397Z,8.49
2023-03-03T13:28:50.036Z,8.47
2023-03-03T13:33:56.661Z,8.76
2023-03-03T13:39:06.409Z,8.60
2023-03-03T13:44:25.804Z,8.53
2023-03-03T13:50:05.802Z,8.44
2023-03-03T13:55:21.684Z,8.35
2023-03-03T14:00:44.918Z,8.33
2023-03-03T14:05:49.859Z,8.56
2023-03-03T14:11:22.438Z,8.21
2023-03-03T14:16:45.844Z,8.37
2023-03-03T14:22:03.575Z,8.36
2023-03-03T14:27:23.355Z,8.41
2023-03-03T14:32:43.232Z,8.26
2023-03-03T14:37:47.482Z,8.21
2023-03-03T14:42:54.551Z,8.23
2023-03-03T14:47:56.264Z,8.41
2023-03-03T14:53:08.626Z,8.21
2023-03-03T14:58:29.292Z,8.28
2023-03-03T15:03:31.543Z,8.10
2023-03-03T15:08:36.479Z,8.11
2023-03-03T15:13:38.552Z,8.05
2023-03-03T15:19:04.166Z,8.43
2023-03-03T15:24:22.227Z,8.12
2023-03-03T15:29:36.156Z,8.12
2023-03-03T15:34:51.363Z,7.92
2023-03-03T15:40:05.233Z,7.81
2023-03-03T15:45:16.075Z,7.78
2023-03-03T15:50:40.494Z,7.88
2023-03-03T15:55:42.038Z,7.99
2023-03-03T16:01:16.269Z,7.66
2023-03-03T16:06:33.729Z,7.83
2023-03-03T16:12:20.321Z,7.77
2023-03-03T16:17:37.037Z,7.81
2023-03-03T16:23:22.370Z,7.81
2023-03-03T16:28:45.504Z,7.86
2023-03-03T16:34:05.404Z,7.66
2023-03-03T16:39:15.141Z,7.54
2023-03-03T16:44:47.864Z,7.53
2023-03-03T16:50:09.567Z,7.50
2023-03-03T16:55:42.640Z,7.67
2023-03-03T17:01:06.500Z,7.54
2023-03-03T17:06:35.966Z,7.50
2023-03-03T17:12:19.502Z,7.46
2023-03-03T17:17:59.784Z,7.57
2023-03-03T17:23:02.637Z,7.72
2023-03-03T17:28:38.663Z,7.73
2023-03-03T17:33:49.903Z,7.58
2023-03-03T17:39:19.372Z,7.45
2023-03-03T17:44:28.731Z,7.40
2023-03-03T17:49:56.500Z,7.36
2023-03-03T17:55:20.057Z,7.37
2023-03-03T18:00:43.879Z,7.43
2023-03-03T18:06:06.460Z,7.40
2023-03-03T18:11:38.453Z,7.34
2023-03-03T18:16:58.227Z,7.50
2023-03-03T18:22:05.751Z,7.42
2023-03-03T18:27:34.958Z,7.37
2023-03-03T18:33:02.020Z,7.34
2023-03-03T18:38:15.897Z,7.37
2023-03-03T18:43:42.736Z,7.36
2023-03-03T18:48:50.468Z,7.41
2023-03-03T18:54:08.646Z,7.37
2023-03-03T18:59:10.564Z,7.39
2023-03-03T19:04:16.354Z,7.30
2023-03-03T19:09:56.780Z,7.34
2023-03-03T19:14:58.519Z,7.37
2023-03-03T19:20:08.837Z,7.54
2023-03-03T19:25:18.472Z,7.40
2023-03-03T19:30:44.539Z,7.41
2023-03-03T19:36:06.087Z,7.39
2023-03-03T19:41:30.661Z,7.40
2023-03-03T19:47:23.728Z,7.32
2023-03-03T19:52:44.706Z,7.33
2023-03-03T19:58:02.094Z,7.28
2023-03-03T20:03:41.269Z,7.40
2023-03-03T20:08:58.796Z,7.35
2023-03-03T20:14:10.186Z,7.39
2023-03-03T20:19:45.522Z,7.31
2023-03-03T20:25:04.536Z,7.34
2023-03-03T20:30:08.757Z,7.43
2023-03-03T20:35:27.368Z,7.78
2023-03-03T20:41:07.620Z,7.63
2023-03-03T20:46:35.101Z,7.45
2023-03-03T20:51:45.579Z,7.64
2023-03-03T20:57:22.309Z,7.48
2023-03-03T21:02:34.932Z,7.53
2023-03-03T21:07:37.026Z,7.47
2023-03-03T21:12:38.775Z,7.49
2023-03-03T21:17:41.890Z,7.44
2023-03-03T21:22:43.781Z,7.40
2023-03-03T21:27:45.503Z,7.35
2023-03-03T21:32:49.224Z,7.44
2023-03-03T21:37:53.921Z,7.45
2023-03-03T21:42:58.965Z,7.57
2023-03-03T21:48:03.605Z,7.37
2023-03-03T21:53:05.292Z,7.42
2023-03-03T21:58:06.983Z,7.42
2023-03-03T22:03:08.817Z,7.47
2023-03-03T22:08:10.483Z,7.84
2023-03-03T22:13:12.250Z,7.70
2023-03-03T22:18:15.072Z,7.51
2023-03-03T22:23:18.805Z,7.83
2023-03-03T22:28:20.544Z,7.64
2023-03-03T22:33:22.233Z,7.48
2023-03-03T22:38:25.141Z,7.59
2023-03-03T22:43:29.676Z,7.47
2023-03-03T22:48:31.900Z,7.41
2023-03-03T22:53:33.798Z,7.82
2023-03-03T22:58:36.960Z,7.54
2023-03-03T23:03:39.741Z,7.52
2023-03-03T23:08:41.361Z,7.40
2023-03-03T23:13:42.992Z,7.34
2023-03-03T23:18:44.589Z,7.34
2023-03-03T23:23:46.164Z,7.45
2023-03-03T23:28:47.726Z,7.49
2023-03-03T23:33:50.915Z,7.29
2023-03-03T23:38:52.611Z,7.23
2023-03-03T23:43:54.257Z,7.33
2023-03-03T23:48:55.865Z,7.33
2023-03-03T23:53:57.567Z,7.28
2023-03-03T23:59:00.533Z,7.34
